Time;durP1;ratioP1;P1;durP2;ratioP2;P2;SDS_P1;SDS_P2;PMS_P1;PMS_P2;Temp;Humidity;BMP_temperature;BMP_pressure;BME280_temperature;BME280_humidity;BME280_pressure;Samples;Min_cycle;Max_cycle;Signal;HPM_P1;HPM_P2
2021/10/25 00:02:04;;;;;;;16.00;10.07;;;;;;;6.84;87.10;101851.72;5036505;28;20112;-72
2021/10/25 00:04:30;;;;;;;21.02;9.90;;;;;;;6.87;86.40;101849.69;5054382;28;20032;-72
2021/10/25 00:06:56;;;;;;;17.52;9.95;;;;;;;6.86;86.50;101850.66;5054292;28;20029;-72
2021/10/25 00:09:22;;;;;;;17.05;9.90;;;;;;;6.83;86.87;101839.84;5054257;28;20028;-72
2021/10/25 00:11:47;;;;;;;16.08;10.48;;;;;;;6.81;87.16;101846.88;5054294;28;20035;-73
2021/10/25 00:14:13;;;;;;;20.48;10.52;;;;;;;6.70;87.35;101837.53;5036257;28;20029;-73
2021/10/25 00:16:41;;;;;;;16.85;10.77;;;;;;;6.73;87.54;101837.25;5054129;28;20036;-73
2021/10/25 00:19:07;;;;;;;16.48;10.40;;;;;;;6.73;87.11;101832.97;5036176;28;20017;-72
2021/10/25 00:21:33;;;;;;;16.65;10.40;;;;;;;6.74;87.01;101836.34;5054045;28;20049;-73
2021/10/25 00:23:58;;;;;;;17.75;10.38;;;;;;;6.72;87.17;101835.66;5036118;28;20024;-72
2021/10/25 00:26:23;;;;;;;23.23;11.15;;;;;;;6.70;87.47;101843.50;5053587;28;20033;-73
2021/10/25 00:28:48;;;;;;;20.70;10.95;;;;;;;6.64;87.57;101838.06;5054428;28;20021;-73
2021/10/25 00:31:14;;;;;;;17.15;10.48;;;;;;;6.64;87.66;101838.88;5053936;28;20024;-72
2021/10/25 00:33:39;;;;;;;20.95;10.93;;;;;;;6.56;87.90;101833.63;5053822;28;20029;-72
2021/10/25 00:36:05;;;;;;;16.58;11.00;;;;;;;6.52;88.18;101834.84;5054296;28;20029;-72
2021/10/25 00:38:31;;;;;;;18.55;10.77;;;;;;;6.48;88.35;101828.34;5053816;28;20395;-72
2021/10/25 00:40:56;;;;;;;16.98;10.48;;;;;;;6.51;88.41;101826.31;5053793;28;20145;-73
2021/10/25 00:43:21;;;;;;;18.33;11.25;;;;;;;6.46;87.94;101823.34;5035905;28;20017;-73
2021/10/25 00:45:47;;;;;;;20.00;10.82;;;;;;;6.52;87.74;101825.38;5035842;28;20021;-72
2021/10/25 00:48:12;;;;;;;15.63;9.90;;;;;;;6.57;87.52;101824.16;5054488;28;20400;-71
2021/10/25 00:50:37;;;;;;;17.30;10.52;;;;;;;6.58;87.28;101813.75;5053885;28;20021;-72
2021/10/25 00:53:03;;;;;;;18.02;10.32;;;;;;;6.57;87.38;101821.59;5035651;28;20029;-74
2021/10/25 00:55:29;;;;;;;18.27;10.20;;;;;;;6.57;87.39;101816.47;5053618;28;20032;-73
2021/10/25 00:57:55;;;;;;;17.70;10.23;;;;;;;6.53;88.06;101824.44;5053589;28;20051;-73
2021/10/25 01:00:22;;;;;;;18.67;10.20;;;;;;;6.54;87.82;101815.78;5053641;28;20029;-73
2021/10/25 01:02:48;;;;;;;18.60;10.20;;;;;;;6.54;88.14;101814.97;5053543;28;20075;-73
2021/10/25 01:05:14;;;;;;;22.80;10.82;;;;;;;6.65;87.52;101803.75;5035568;28;20079;-73
2021/10/25 01:07:40;;;;;;;17.55;11.18;;;;;;;6.63;88.10;101806.44;5053424;28;20024;-73
2021/10/25 01:10:06;;;;;;;22.70;10.77;;;;;;;6.68;87.71;101806.84;5053349;28;20031;-73
2021/10/25 01:12:32;;;;;;;18.52;9.65;;;;;;;6.82;87.27;101805.63;5053225;28;20024;-73
2021/10/25 01:14:58;;;;;;;20.33;11.05;;;;;;;6.76;87.43;101804.44;5053313;28;20024;-71
2021/10/25 01:17:23;;;;;;;21.40;11.45;;;;;;;6.80;87.63;101801.59;5053886;28;20047;-72
2021/10/25 01:19:53;;;;;;;17.95;11.13;;;;;;;6.84;87.71;101801.16;5053172;28;20049;-72
2021/10/25 01:22:19;;;;;;;20.23;10.63;;;;;;;6.89;87.44;101808.47;5053324;28;20037;-72
2021/10/25 01:24:45;;;;;;;19.38;9.88;;;;;;;6.96;87.26;101809.53;5053314;28;20029;-72
2021/10/25 01:27:10;;;;;;;22.08;10.75;;;;;;;7.09;86.76;101804.09;5053506;28;20118;-72
2021/10/25 01:29:35;;;;;;;17.50;9.95;;;;;;;7.02;87.33;101803.84;5053274;28;20021;-73
2021/10/25 01:32:00;;;;;;;18.10;10.07;;;;;;;7.03;87.12;101804.66;5053197;28;20474;-72
2021/10/25 01:34:26;;;;;;;15.15;9.68;;;;;;;7.11;86.96;101804.78;5035250;28;20033;-72
2021/10/25 01:36:51;;;;;;;15.00;9.55;;;;;;;7.14;86.79;101795.03;5053641;28;20023;-73
2021/10/25 01:39:17;;;;;;;17.45;9.82;;;;;;;7.30;86.80;101796.19;5057719;28;20471;-72
2021/10/25 01:41:42;;;;;;;16.63;9.75;;;;;;;7.32;87.00;101795.09;5057038;28;20430;-72
2021/10/25 01:44:10;;;;;;;15.18;9.40;;;;;;;7.21;87.04;101800.41;5057080;28;20116;-73
2021/10/25 01:46:35;;;;;;;14.90;9.88;;;;;;;7.30;86.87;101788.47;5057032;28;20024;-72
2021/10/25 01:49:03;;;;;;;19.88;10.30;;;;;;;7.41;85.98;101794.25;5039181;28;20029;-71
2021/10/25 01:51:29;;;;;;;19.67;9.95;;;;;;;7.46;86.20;101793.84;5039873;28;20029;-72
2021/10/25 01:53:54;;;;;;;16.60;9.60;;;;;;;7.48;86.77;101797.09;5056805;28;20525;-72
2021/10/25 01:56:20;;;;;;;17.33;9.93;;;;;;;7.46;86.41;101789.50;5038951;28;20036;-72
2021/10/25 01:58:45;;;;;;;15.77;9.45;;;;;;;7.57;86.02;101795.44;5038896;28;20457;-72
2021/10/25 02:01:16;;;;;;;18.85;10.52;;;;;;;7.66;85.81;101787.66;5056733;28;20491;-73
2021/10/25 02:03:41;;;;;;;17.80;9.93;;;;;;;7.60;85.75;101785.66;5056729;28;20052;-72
2021/10/25 02:06:06;;;;;;;16.27;9.88;;;;;;;7.64;86.15;101791.31;5056843;28;20062;-72
2021/10/25 02:08:31;;;;;;;14.40;9.68;;;;;;;7.68;86.17;101783.19;5056660;28;20032;-72
2021/10/25 02:10:57;;;;;;;16.33;9.35;;;;;;;7.78;85.47;101782.31;5056529;28;20017;-72
2021/10/25 02:13:22;;;;;;;14.18;9.05;;;;;;;7.95;85.35;101786.69;5056459;28;20033;-71
2021/10/25 02:15:48;;;;;;;18.98;9.93;;;;;;;7.87;85.34;101771.97;5056419;28;20025;-73
2021/10/25 02:18:14;;;;;;;19.52;9.60;;;;;;;7.94;85.63;101782.50;5056436;28;20033;-72
2021/10/25 02:20:41;;;;;;;17.20;9.30;;;;;;;7.95;85.12;101773.00;5056188;28;20052;-72
2021/10/25 02:23:08;;;;;;;16.40;9.95;;;;;;;7.95;84.81;101771.25;5038418;28;20384;-72
2021/10/25 02:25:35;;;;;;;14.50;9.18;;;;;;;7.91;84.89;101765.59;5056242;28;20024;-72
2021/10/25 02:28:01;;;;;;;18.40;9.82;;;;;;;7.95;85.04;101766.09;5056228;28;20103;-72
2021/10/25 02:30:27;;;;;;;22.00;10.70;;;;;;;7.95;85.66;101762.72;5056204;28;20108;-71
2021/10/25 02:32:52;;;;;;;19.30;9.30;;;;;;;7.91;85.55;101757.88;5038132;28;20120;-72
2021/10/25 02:35:18;;;;;;;17.98;9.65;;;;;;;7.99;85.10;101759.69;5056635;28;20032;-72
2021/10/25 02:37:43;;;;;;;19.00;9.48;;;;;;;7.97;85.78;101751.31;5038204;28;20020;-72
2021/10/25 02:40:09;;;;;;;15.75;9.93;;;;;;;7.93;85.85;101749.97;5055988;28;20036;-71
2021/10/25 02:42:34;;;;;;;15.38;9.23;;;;;;;7.99;85.69;101754.53;5037996;28;20055;-72
2021/10/25 02:45:00;;;;;;;13.75;9.18;;;;;;;7.96;85.27;101748.88;5055950;28;20051;-73
2021/10/25 02:47:25;;;;;;;16.13;9.90;;;;;;;8.04;85.63;101749.78;5037868;28;20115;-73
2021/10/25 02:49:50;;;;;;;14.75;9.10;;;;;;;8.03;85.74;101750.75;5055680;28;20027;-73
2021/10/25 02:52:15;;;;;;;14.90;9.40;;;;;;;8.08;85.50;101745.94;5055795;28;20066;-72
2021/10/25 02:54:41;;;;;;;18.42;9.52;;;;;;;8.08;85.16;101742.56;5037841;28;20386;-72
2021/10/25 02:57:06;;;;;;;14.48;8.90;;;;;;;8.12;85.64;101742.13;5055711;28;20036;-72
2021/10/25 02:59:31;;;;;;;15.20;9.40;;;;;;;8.14;84.99;101740.22;5055968;28;20021;-72
2021/10/25 03:01:57;;;;;;;19.33;9.50;;;;;;;8.20;85.25;101743.16;5037654;28;20017;-72
2021/10/25 03:04:22;;;;;;;18.67;9.65;;;;;;;8.19;84.99;101738.97;5055614;28;20017;-73
2021/10/25 03:06:48;;;;;;;15.60;8.88;;;;;;;8.25;84.49;101746.09;5056086;28;20032;-72
2021/10/25 03:09:13;;;;;;;16.00;9.38;;;;;;;8.33;84.29;101738.44;5055760;28;20075;-72
2021/10/25 03:11:38;;;;;;;13.52;8.93;;;;;;;8.36;84.59;101741.53;5037564;28;20025;-71
2021/10/25 03:14:04;;;;;;;16.63;8.63;;;;;;;8.42;84.63;101737.56;5055315;28;20032;-72
2021/10/25 03:16:29;;;;;;;16.42;9.00;;;;;;;8.49;84.41;101742.97;5055383;28;20414;-72
2021/10/25 03:18:54;;;;;;;16.05;8.68;;;;;;;8.53;84.35;101739.91;5037332;28;20060;-72
2021/10/25 03:21:22;;;;;;;18.60;8.75;;;;;;;8.47;85.25;101735.38;5037218;28;20052;-72
2021/10/25 03:23:48;;;;;;;17.17;9.00;;;;;;;8.52;84.56;101735.72;5037354;28;20049;-72
2021/10/25 03:26:15;;;;;;;17.70;8.85;;;;;;;8.50;85.22;101735.06;5055389;28;20029;-72
2021/10/25 03:28:41;;;;;;;21.30;11.23;;;;;;;8.50;84.51;101727.34;5055437;28;20100;-72
2021/10/25 03:31:07;;;;;;;14.82;9.20;;;;;;;8.58;84.80;101727.41;5037158;28;20055;-72
2021/10/25 03:33:34;;;;;;;13.90;8.30;;;;;;;8.62;84.98;101727.09;5054947;28;20025;-72
2021/10/25 03:36:01;;;;;;;16.02;8.52;;;;;;;8.66;84.76;101728.41;5055251;28;20051;-72
2021/10/25 03:38:27;;;;;;;17.83;8.75;;;;;;;8.76;84.13;101724.78;5055262;28;20032;-72
2021/10/25 03:40:54;;;;;;;14.65;8.55;;;;;;;8.67;84.71;101732.63;5037035;28;20054;-71
2021/10/25 03:43:21;;;;;;;18.25;8.60;;;;;;;8.70;84.91;101730.53;5036874;28;20040;-72
2021/10/25 03:45:52;;;;;;;14.88;8.82;;;;;;;8.59;85.41;101731.59;5055060;28;20017;-72
2021/10/25 03:48:29;;;;;;;15.68;8.60;;;;;;;8.60;85.88;101729.81;5054832;28;20029;-72
2021/10/25 03:50:54;;;;;;;18.23;9.23;;;;;;;8.59;86.01;101734.16;5036858;28;20029;-72
2021/10/25 03:53:41;;;;;;;17.60;8.40;;;;;;;8.55;86.54;101732.06;5036755;28;20021;-72
2021/10/25 03:56:15;;;;;;;19.17;9.20;;;;;;;8.47;86.77;101735.38;5055121;28;20029;-72
2021/10/25 03:59:02;;;;;;;14.27;9.23;;;;;;;8.49;87.38;101738.59;5036727;28;20021;-73
2021/10/25 04:28:23;;;;;;;18.33;10.73;;;;;;;8.62;88.05;101727.91;5054948;28;20041;-73
2021/10/25 04:30:55;;;;;;;21.45;10.05;;;;;;;8.66;88.65;101730.97;5053950;28;20033;-73
2021/10/25 04:33:21;;;;;;;20.88;10.02;;;;;;;8.63;88.57;101731.28;5054154;28;20052;-73
2021/10/25 04:35:46;;;;;;;17.70;9.40;;;;;;;8.68;88.10;101729.88;5053804;28;20083;-72
2021/10/25 04:38:12;;;;;;;22.75;9.68;;;;;;;8.68;87.87;101727.28;5054024;28;20028;-73
2021/10/25 04:40:37;;;;;;;20.90;9.90;;;;;;;8.71;88.60;101736.50;5035777;28;20029;-73
2021/10/25 04:43:02;;;;;;;20.98;9.85;;;;;;;8.65;88.40;101727.59;5053667;28;20028;-72
2021/10/25 04:45:28;;;;;;;14.80;9.13;;;;;;;8.69;88.66;101730.66;5035793;28;20029;-73
2021/10/25 04:47:54;;;;;;;15.90;9.40;;;;;;;8.66;88.80;101742.13;5053724;28;20488;-72
2021/10/25 04:50:21;;;;;;;17.17;9.90;;;;;;;8.61;89.28;101736.59;5053694;28;20021;-72
2021/10/25 04:52:47;;;;;;;15.57;9.70;;;;;;;8.59;90.13;101731.59;5054087;28;20370;-73
2021/10/25 04:55:12;;;;;;;15.52;9.85;;;;;;;8.61;89.76;101738.38;5053666;28;20025;-72
2021/10/25 04:57:38;;;;;;;22.92;10.57;;;;;;;8.61;90.11;101728.88;5035691;28;20025;-72
2021/10/25 05:00:04;;;;;;;15.75;10.25;;;;;;;8.61;90.28;101723.72;5035734;28;20360;-73
2021/10/25 05:02:29;;;;;;;21.05;9.90;;;;;;;8.62;91.09;101727.91;5053427;28;20032;-73
2021/10/25 05:04:55;;;;;;;21.83;11.52;;;;;;;8.57;91.26;101724.97;5053436;28;20027;-73
2021/10/25 05:07:20;;;;;;;17.70;10.07;;;;;;;8.48;91.67;101712.97;5035561;28;20017;-72
2021/10/25 05:09:45;;;;;;;18.35;10.85;;;;;;;8.42;92.53;101713.59;5053422;28;20467;-72
2021/10/25 05:12:13;;;;;;;22.38;11.25;;;;;;;8.57;92.26;101714.66;5053674;28;20071;-72
2021/10/25 05:14:41;;;;;;;17.92;11.10;;;;;;;8.52;92.51;101715.13;5035456;28;20098;-73
2021/10/25 05:17:07;;;;;;;21.13;11.18;;;;;;;8.48;92.59;101713.78;5035441;28;20021;-73
2021/10/25 05:19:32;;;;;;;17.40;10.90;;;;;;;8.40;92.60;101702.63;5053131;28;20029;-72
2021/10/25 05:21:57;;;;;;;20.75;11.00;;;;;;;8.64;92.66;101715.69;5053792;28;20421;-73
2021/10/25 05:24:22;;;;;;;18.35;10.52;;;;;;;8.68;92.24;101716.19;5053225;28;20017;-73
2021/10/25 05:26:48;;;;;;;18.15;11.15;;;;;;;8.71;92.41;101716.69;5053500;28;20036;-72
2021/10/25 05:29:13;;;;;;;20.92;11.43;;;;;;;8.65;92.67;101713.91;5035332;28;20060;-73
2021/10/25 05:31:38;;;;;;;16.73;10.85;;;;;;;8.67;92.82;101696.53;5053738;28;20048;-73
2021/10/25 05:34:04;;;;;;;17.00;10.75;;;;;;;8.66;92.75;101712.94;5053061;28;20025;-73
2021/10/25 05:36:29;;;;;;;18.00;11.63;;;;;;;8.66;93.16;101711.19;5053161;28;20021;-73
2021/10/25 05:38:54;;;;;;;18.15;10.68;;;;;;;8.69;92.69;101712.63;5035276;28;20508;-73
2021/10/25 05:41:19;;;;;;;16.40;10.73;;;;;;;8.73;92.61;101699.31;5053135;28;20050;-73
2021/10/25 05:43:45;;;;;;;18.98;11.30;;;;;;;8.75;92.40;101692.25;5052975;28;20053;-73
2021/10/25 05:46:10;;;;;;;17.27;11.25;;;;;;;8.81;92.72;101695.97;5053253;28;20106;-73
2021/10/25 05:48:39;;;;;;;14.50;10.38;;;;;;;8.85;91.88;101694.69;5053546;28;20075;-72
2021/10/25 05:51:06;;;;;;;19.00;11.10;;;;;;;8.85;92.47;101699.06;5053218;28;20071;-73
2021/10/25 05:53:31;;;;;;;21.13;11.60;;;;;;;8.90;92.59;101699.41;5035027;28;20021;-73
2021/10/25 05:55:58;;;;;;;18.00;11.15;;;;;;;8.80;92.80;101692.59;5052867;28;20517;-73
2021/10/25 05:58:23;;;;;;;16.80;11.55;;;;;;;8.84;92.71;101695.66;5035795;28;20024;-73
2021/10/25 06:00:55;;;;;;;20.25;12.10;;;;;;;8.89;92.90;101696.03;5053142;28;20021;-73
2021/10/25 06:03:25;;;;;;;15.50;11.25;;;;;;;8.96;92.36;101688.47;5054080;28;20112;-73
2021/10/25 06:05:51;;;;;;;19.52;11.27;;;;;;;8.82;92.26;101692.44;5053150;28;20048;-73
2021/10/25 06:08:18;;;;;;;18.90;12.23;;;;;;;8.82;93.45;101684.69;5052784;28;20442;-72
2021/10/25 06:10:44;;;;;;;20.70;12.13;;;;;;;8.84;93.42;101684.56;5035045;28;20067;-72
2021/10/25 06:13:12;;;;;;;16.50;11.75;;;;;;;8.77;93.09;101676.59;5034803;28;20132;-71
2021/10/25 06:15:41;;;;;;;19.05;12.05;;;;;;;8.86;93.38;101675.72;5036324;28;20426;-72
2021/10/25 06:18:08;;;;;;;16.98;12.43;;;;;;;8.78;93.69;101678.25;5034943;28;20032;-73
2021/10/25 06:20:37;;;;;;;17.60;12.43;;;;;;;8.80;93.67;101684.03;5052454;28;20049;-73
2021/10/25 06:23:13;;;;;;;19.30;12.32;;;;;;;8.82;93.78;101692.44;5035593;28;20040;-73
2021/10/25 06:25:40;;;;;;;21.10;12.57;;;;;;;8.87;93.48;101687.63;5038384;28;20056;-74
2021/10/25 06:28:06;;;;;;;17.23;12.20;;;;;;;8.95;93.35;101686.88;5056131;28;20079;-74
2021/10/25 06:30:33;;;;;;;18.13;12.23;;;;;;;8.97;93.16;101695.25;5056000;28;20096;-74
2021/10/25 06:32:58;;;;;;;17.90;12.05;;;;;;;9.07;93.02;101700.31;5038573;28;20395;-73
2021/10/25 06:35:25;;;;;;;19.58;12.32;;;;;;;9.03;92.83;101698.03;5056044;28;20020;-72
2021/10/25 06:37:58;;;;;;;18.17;12.82;;;;;;;8.99;93.38;101701.88;5056112;28;20029;-72
2021/10/25 06:40:26;;;;;;;17.90;12.50;;;;;;;8.99;93.20;101703.63;5038251;28;20017;-74
2021/10/25 06:42:51;;;;;;;15.60;11.35;;;;;;;8.99;93.06;101704.44;5055895;28;20039;-73
2021/10/25 06:45:20;;;;;;;19.83;12.35;;;;;;;8.90;93.48;101689.09;5038009;28;20056;-74
2021/10/25 06:47:47;;;;;;;20.20;12.98;;;;;;;9.06;93.75;101701.25;5038292;28;20470;-74
2021/10/25 06:50:14;;;;;;;18.38;11.85;;;;;;;9.15;93.08;101697.72;5055886;28;20079;-73
2021/10/25 06:52:39;;;;;;;19.52;12.63;;;;;;;9.02;93.43;101698.16;5055804;28;20395;-72
2021/10/25 06:55:06;;;;;;;18.58;11.82;;;;;;;9.02;93.86;101698.97;5055748;28;20067;-72
2021/10/25 06:57:31;;;;;;;18.67;12.52;;;;;;;9.05;93.35;101687.53;5055741;28;20037;-74
2021/10/25 06:59:57;;;;;;;21.38;12.93;;;;;;;9.09;93.90;101708.66;5037989;28;20072;-74
2021/10/25 07:02:23;;;;;;;19.50;12.60;;;;;;;9.10;93.85;101695.63;5038545;28;20020;-74
2021/10/25 07:04:48;;;;;;;16.70;11.43;;;;;;;9.21;93.59;101712.63;5039966;28;20485;-74
2021/10/25 07:07:14;;;;;;;18.48;11.73;;;;;;;9.21;92.91;101704.88;5055575;28;20021;-74
2021/10/25 07:09:40;;;;;;;19.08;12.82;;;;;;;9.19;93.40;101717.09;5037590;28;20493;-73
2021/10/25 07:12:06;;;;;;;18.85;12.85;;;;;;;9.29;93.03;101715.19;5055540;28;20035;-73
2021/10/25 07:14:37;;;;;;;19.60;12.63;;;;;;;9.28;92.99;101721.34;5055642;28;20053;-73
2021/10/25 08:01:16;;;;;;;20.67;13.07;;;;;;;9.46;92.93;101728.97;5057480;28;20090;-73
2021/10/25 08:06:22;;;;;;;24.20;14.60;;;;;;;9.38;93.07;101727.19;5058651;28;20410;-73
2021/10/25 08:11:14;;;;;;;24.55;15.55;;;;;;;9.44;92.82;101734.31;5057203;28;20041;-73
2021/10/25 08:13:43;;;;;;;24.60;15.10;;;;;;;9.46;92.90;101742.69;5056590;28;20028;-73
2021/10/25 08:16:42;;;;;;;27.08;15.52;;;;;;;9.48;92.97;101734.78;5056301;28;20052;-74
2021/10/25 08:21:41;;;;;;;29.17;15.93;;;;;;;9.54;92.82;101736.75;5055895;28;20056;-73
2021/10/25 08:24:06;;;;;;;27.70;16.00;;;;;;;9.52;92.51;101732.69;5038075;28;20025;-73
2021/10/25 08:26:32;;;;;;;27.05;16.15;;;;;;;9.56;92.83;101734.03;5038196;28;20017;-74
2021/10/25 08:28:57;;;;;;;28.80;16.20;;;;;;;9.67;92.54;101738.91;5037768;28;20034;-72
2021/10/25 08:31:23;;;;;;;26.48;15.68;;;;;;;9.75;92.59;101738.88;5055572;28;20029;-72
2021/10/25 08:42:04;;;;;;;25.55;15.75;;;;;;;9.76;92.63;101742.31;5055520;28;20564;-73
2021/10/25 08:44:30;;;;;;;26.52;16.05;;;;;;;9.86;92.55;101743.75;5053972;28;20017;-74
2021/10/25 08:46:58;;;;;;;26.38;16.15;;;;;;;9.94;92.23;101741.19;5053974;28;20455;-74
2021/10/25 08:49:24;;;;;;;22.77;14.77;;;;;;;9.94;92.11;101733.44;5054050;28;20027;-74
2021/10/25 08:51:49;;;;;;;26.55;14.90;;;;;;;9.85;92.50;101743.94;5053622;28;20494;-73
2021/10/25 08:54:15;;;;;;;21.88;14.25;;;;;;;9.68;92.47;101717.28;5035766;28;20025;-74
2021/10/25 08:56:40;;;;;;;21.80;13.95;;;;;;;9.78;92.42;101745.50;5055856;28;20056;-74
2021/10/25 08:59:05;;;;;;;21.75;14.98;;;;;;;9.82;92.30;101739.09;5035723;28;20024;-74
2021/10/25 09:01:32;;;;;;;23.40;14.55;;;;;;;9.85;92.69;101738.78;5053528;28;20021;-74
2021/10/25 09:04:11;;;;;;;22.73;14.48;;;;;;;9.83;92.84;101732.94;5053600;28;20025;-74
2021/10/25 09:06:49;;;;;;;21.10;14.60;;;;;;;9.94;92.22;101730.88;5035681;28;20025;-74
2021/10/25 09:09:15;;;;;;;22.63;14.88;;;;;;;10.08;92.13;101732.03;5035676;28;20406;-74
2021/10/25 09:12:06;;;;;;;22.48;14.75;;;;;;;10.05;91.50;101723.78;5035634;28;20437;-73
2021/10/25 09:14:32;;;;;;;19.90;13.90;;;;;;;9.80;92.26;101690.19;5053413;28;20498;-73
2021/10/25 09:17:02;;;;;;;21.90;14.23;;;;;;;10.22;91.84;101730.59;5053405;28;20530;-73
2021/10/25 09:19:32;;;;;;;22.80;13.77;;;;;;;10.12;91.72;101735.09;5053573;28;20032;-72
2021/10/25 09:22:06;;;;;;;22.33;14.93;;;;;;;10.21;91.50;101728.94;5053418;28;20035;-73
2021/10/25 09:24:31;;;;;;;;;;;;;;;9.85;91.54;101705.22;5053831;28;20495;-74
2021/10/25 09:27:01;;;;;;;26.60;14.10;;;;;;;10.19;91.38;101733.50;5053326;28;19915;-73
2021/10/25 09:29:28;;;;;;;21.85;12.95;;;;;;;10.21;91.44;101734.13;5053330;28;20260;-74
2021/10/25 09:31:57;;;;;;;20.15;13.63;;;;;;;10.23;91.49;101731.38;5053740;28;20017;-73
2021/10/25 09:34:44;;;;;;;21.92;13.05;;;;;;;10.41;91.06;101728.66;5053472;28;20114;-73
2021/10/25 09:37:15;;;;;;;21.58;13.77;;;;;;;10.48;90.49;101727.06;5053249;28;20078;-74
2021/10/25 09:39:47;;;;;;;22.27;13.02;;;;;;;10.31;91.08;101732.22;5035401;28;20391;-74
2021/10/25 09:50:20;;;;;;;23.30;12.75;;;;;;;10.63;90.65;101719.44;5054035;28;20486;-74
2021/10/25 09:52:45;;;;;;;21.08;12.27;;;;;;;10.47;90.35;101721.09;5035641;28;20025;-74
2021/10/25 09:55:14;;;;;;;21.50;13.05;;;;;;;10.42;90.85;101718.19;5053399;28;20075;-74
2021/10/25 09:57:52;;;;;;;22.77;12.73;;;;;;;10.55;90.41;101718.47;5053072;28;20052;-74
2021/10/25 10:00:18;;;;;;;19.90;12.70;;;;;;;10.59;89.77;101714.59;5039460;28;20463;-73
2021/10/25 10:02:45;;;;;;;22.13;12.98;;;;;;;10.74;90.11;101713.94;5039482;28;20116;-73
2021/10/25 10:05:12;;;;;;;20.60;13.05;;;;;;;10.61;89.98;101720.38;5057957;28;20032;-74
2021/10/25 10:07:39;;;;;;;21.02;13.43;;;;;;;10.73;89.59;101712.28;5056984;28;20378;-73
2021/10/25 10:10:06;;;;;;;24.85;14.18;;;;;;;10.71;90.07;101715.06;5056837;28;20021;-73
2021/10/25 10:12:33;;;;;;;25.10;13.85;;;;;;;10.65;90.47;101715.72;5056720;28;20383;-73
2021/10/25 10:15:00;;;;;;;25.38;15.10;;;;;;;10.87;90.21;101710.81;5056579;28;20482;-73
2021/10/25 10:17:37;;;;;;;25.45;13.95;;;;;;;10.91;89.76;101709.53;5038590;28;20028;-73
2021/10/25 10:20:07;;;;;;;23.48;14.57;;;;;;;10.82;89.42;101712.13;5056446;28;20106;-73
2021/10/25 10:22:34;;;;;;;21.50;13.48;;;;;;;10.88;90.43;101721.00;5056451;28;20368;-73
2021/10/25 10:24:59;;;;;;;25.42;14.45;;;;;;;10.93;89.95;101723.06;5038431;28;20017;-73
2021/10/25 10:27:25;;;;;;;27.15;15.60;;;;;;;10.73;90.02;101723.47;5056228;28;20420;-74
2021/10/25 10:29:57;;;;;;;27.58;15.18;;;;;;;10.73;90.46;101718.31;5038305;28;20021;-73
2021/10/25 10:32:25;;;;;;;28.83;16.30;;;;;;;10.69;90.40;101717.00;5038922;28;20391;-73
2021/10/25 10:34:52;;;;;;;26.73;16.08;;;;;;;10.57;91.48;101710.56;5056008;28;20025;-74
2021/10/25 10:37:21;;;;;;;28.45;17.33;;;;;;;10.65;91.46;101714.94;5055909;28;20033;-73
2021/10/25 10:40:07;;;;;;;32.40;17.08;;;;;;;10.76;91.37;101717.13;5038055;28;20075;-74
2021/10/25 10:42:35;;;;;;;26.98;15.82;;;;;;;10.77;90.72;101709.22;5037765;28;20154;-74
2021/10/25 10:45:05;;;;;;;29.15;17.30;;;;;;;11.00;90.28;101716.28;5037850;28;20017;-73
2021/10/25 10:47:39;;;;;;;26.98;16.40;;;;;;;10.97;89.75;101716.63;5056095;28;20063;-72
2021/10/25 10:50:18;;;;;;;31.55;16.05;;;;;;;10.78;90.45;101713.41;5055940;28;20025;-73
2021/10/25 10:52:45;;;;;;;34.20;17.13;;;;;;;10.91;90.74;101712.13;5055751;28;20025;-73
2021/10/25 10:55:33;;;;;;;31.52;17.48;;;;;;;10.96;90.85;101707.22;5056007;28;20096;-73
2021/10/25 11:00:38;;;;;;;29.05;17.17;;;;;;;11.00;90.48;101708.53;5056070;28;20028;-73
2021/10/25 11:03:13;;;;;;;31.65;17.17;;;;;;;10.98;91.17;101711.25;5055601;28;20391;-73
2021/10/25 11:05:43;;;;;;;31.35;17.38;;;;;;;11.09;90.56;101702.34;5037681;28;20031;-73
2021/10/25 11:08:24;;;;;;;28.33;17.70;;;;;;;11.22;90.48;101712.16;5037811;28;20025;-73
2021/10/25 11:11:00;;;;;;;29.45;17.70;;;;;;;11.09;90.43;101709.31;5037511;28;20102;-75
2021/10/25 11:13:29;;;;;;;32.75;18.77;;;;;;;11.14;91.21;101705.25;5055432;28;20029;-74
2021/10/25 11:16:07;;;;;;;39.08;20.30;;;;;;;11.11;91.15;101709.94;5055448;28;20017;-73
2021/10/25 11:18:41;;;;;;;32.67;19.08;;;;;;;11.09;90.18;101710.09;5037542;28;20021;-71
2021/10/25 11:21:12;;;;;;;36.20;19.63;;;;;;;11.23;90.10;101706.81;5037298;28;20052;-73
2021/10/25 11:24:09;;;;;;;30.70;18.63;;;;;;;11.18;90.72;101700.53;5055751;28;20021;-73
2021/10/25 11:26:36;;;;;;;35.13;20.00;;;;;;;11.08;90.75;101680.06;5034236;28;20084;-74
2021/10/25 11:29:20;;;;;;;36.08;19.42;;;;;;;11.25;90.79;101704.88;5055495;28;20399;-73
2021/10/25 11:31:52;;;;;;;36.15;20.52;;;;;;;11.32;90.42;101709.38;5037339;28;20048;-73
2021/10/25 11:34:24;;;;;;;35.28;19.58;;;;;;;11.30;89.82;101707.75;5055604;28;20082;-74
2021/10/25 11:37:06;;;;;;;34.47;20.40;;;;;;;11.27;90.20;101710.66;5055116;28;20028;-73
2021/10/25 11:39:36;;;;;;;33.20;20.02;;;;;;;11.36;90.14;101714.03;5037147;28;20024;-73
2021/10/25 11:42:04;;;;;;;34.70;20.85;;;;;;;11.31;89.96;101711.16;5037063;28;20478;-74
2021/10/25 11:44:32;;;;;;;32.72;19.83;;;;;;;11.39;89.99;101718.06;5037116;28;20017;-73
2021/10/25 11:46:57;;;;;;;35.22;20.50;;;;;;;11.40;90.18;101707.56;5037343;28;20383;-73
2021/10/25 11:49:24;;;;;;;38.47;21.00;;;;;;;11.37;90.90;101712.25;5054799;28;20021;-75
2021/10/25 11:51:53;;;;;;;35.38;21.38;;;;;;;11.46;90.34;101706.88;5036913;28;20475;-72
2021/10/25 11:54:18;;;;;;;34.05;20.70;;;;;;;11.46;90.13;101698.31;5036814;28;20025;-74
2021/10/25 11:56:52;;;;;;;32.90;20.92;;;;;;;11.52;89.64;101695.03;5054530;28;20036;-74
2021/10/25 11:59:18;;;;;;;38.03;21.13;;;;;;;11.30;89.95;101694.81;5054528;28;20037;-73
2021/10/25 12:05:06;;;;;;;41.80;21.98;;;;;;;11.57;90.36;101692.75;5054745;28;20051;-73
2021/10/25 12:07:33;;;;;;;34.97;21.08;;;;;;;11.51;89.91;101699.41;5054649;28;20105;-73
2021/10/25 12:10:05;;;;;;;35.00;21.23;;;;;;;11.52;89.68;101695.03;5054624;28;20021;-73
2021/10/25 12:12:31;;;;;;;33.20;20.52;;;;;;;11.36;90.59;101695.91;5054292;28;20028;-73
2021/10/25 12:15:02;;;;;;;37.38;20.98;;;;;;;11.48;90.04;101683.41;5054801;28;20045;-74
2021/10/25 12:17:36;;;;;;;33.97;19.75;;;;;;;11.54;90.12;101700.84;5037879;28;20381;-73
2021/10/25 12:20:08;;;;;;;37.55;20.45;;;;;;;11.44;89.92;101706.22;5054315;28;20045;-73
2021/10/25 12:22:34;;;;;;;33.42;20.65;;;;;;;11.53;90.80;101701.81;5055199;28;20021;-73
2021/10/25 12:24:59;;;;;;;36.00;20.63;;;;;;;11.43;90.34;101704.63;5036630;28;20490;-73
2021/10/25 12:27:35;;;;;;;34.50;21.67;;;;;;;11.51;90.11;101696.03;5036294;28;20025;-74
2021/10/25 12:30:08;;;;;;;35.53;22.17;;;;;;;11.61;90.29;101700.97;5054207;28;20016;-73
2021/10/25 12:32:35;;;;;;;38.30;22.13;;;;;;;11.65;90.03;101703.06;5054012;28;20032;-73
2021/10/25 12:35:04;;;;;;;38.75;22.23;;;;;;;11.61;90.08;101703.56;5053988;28;20025;-74
2021/10/25 12:37:32;;;;;;;39.90;22.92;;;;;;;11.56;90.13;101693.69;5053977;28;20041;-73
2021/10/25 12:40:01;;;;;;;34.53;21.73;;;;;;;11.72;89.67;101697.97;5036657;28;20025;-73
2021/10/25 12:42:39;;;;;;;36.30;22.13;;;;;;;11.56;89.06;101691.13;5036650;28;20112;-74
2021/10/25 12:45:13;;;;;;;35.67;21.35;;;;;;;11.80;89.33;101703.13;5053977;28;20031;-73
2021/10/25 12:47:39;;;;;;;35.28;21.70;;;;;;;11.70;90.03;101700.72;5053810;28;20396;-73
2021/10/25 12:50:04;;;;;;;36.70;21.17;;;;;;;11.82;89.27;101685.59;5053865;28;20025;-72
2021/10/25 12:52:30;;;;;;;35.15;21.80;;;;;;;11.90;88.79;101689.97;5053757;28;20029;-73
2021/10/25 12:55:03;;;;;;;37.97;21.75;;;;;;;11.93;88.79;101685.22;5053620;28;20467;-74
2021/10/25 12:57:37;;;;;;;37.15;20.67;;;;;;;12.08;88.36;101681.88;5053742;28;20094;-72
2021/10/25 13:00:07;;;;;;;34.55;20.45;;;;;;;12.11;88.72;101682.34;5035692;28;20360;-73
2021/10/25 13:02:42;;;;;;;33.45;20.90;;;;;;;12.18;88.44;101683.25;5053633;28;20032;-74